Time;durP1;ratioP1;P1;durP2;ratioP2;P2;SDS_P1;SDS_P2;PMS_P1;PMS_P2;Temp;Humidity;BMP_temperature;BMP_pressure;BME280_temperature;BME280_humidity;BME280_pressure;Samples;Min_cycle;Max_cycle;Signal;HPM_P1;HPM_P2
2023/10/06 00:01:00;;;;;;;3.90;2.93;;;;;;;;;;5034972;28;20424;-83
2023/10/06 00:03:26;;;;;;;5.80;2.53;;;;;;;;;;5052983;28;20176;-86
2023/10/06 00:05:53;;;;;;;7.07;2.77;;;;;;;;;;5034734;28;20975;-83
2023/10/06 00:08:20;;;;;;;6.10;3.10;;;;;;;;;;5052343;28;20416;-85
2023/10/06 00:10:50;;;;;;;5.57;3.37;;;;;;;;;;5034682;28;20929;-82
2023/10/06 00:13:23;;;;;;;4.70;3.37;;;;;;;;;;5052655;28;20421;-87
2023/10/06 00:15:50;;;;;;;8.10;4.10;;;;;;;;;;5052789;28;20439;-82
2023/10/06 00:18:19;;;;;;;7.10;4.43;;;;;;;;;;5052705;28;20408;-82
2023/10/06 00:20:56;;;;;;;8.53;5.17;;;;;;;;;;5052849;28;20899;-86
2023/10/06 00:23:22;;;;;;;6.43;4.13;;;;;;;;;;5052555;28;20979;-91
2023/10/06 00:25:52;;;;;;;8.93;5.10;;;;;;;;;;5034095;28;20465;-83
2023/10/06 00:28:22;;;;;;;10.30;4.60;;;;;;;;;;5032338;28;20417;-91
2023/10/06 00:30:55;;;;;;;9.13;5.10;;;;;;;;;;5033052;28;20397;-83
2023/10/06 00:33:22;;;;;;;7.77;5.30;;;;;;;;;;5033028;28;20452;-89
2023/10/06 00:35:48;;;;;;;10.20;6.10;;;;;;;;;;5033066;28;20409;-84
2023/10/06 00:38:17;;;;;;;9.50;6.40;;;;;;;;;;5032820;28;20755;-90
2023/10/06 00:40:52;;;;;;;7.83;6.17;;;;;;;;;;5032783;28;20181;-83
2023/10/06 00:43:35;;;;;;;8.87;7.03;;;;;;;;;;5033556;28;20397;-84
2023/10/06 00:46:10;;;;;;;13.80;7.80;;;;;;;;;;5033042;28;20465;-83
2023/10/06 00:48:43;;;;;;;12.90;6.20;;;;;;;;;;5034256;28;20421;-84
2023/10/06 00:51:26;;;;;;;12.50;7.63;;;;;;;;;;5036475;28;20399;-85
2023/10/06 00:53:56;;;;;;;10.90;7.80;;;;;;;;;;5036245;28;20417;-85
2023/10/06 00:56:27;;;;;;;10.97;7.13;;;;;;;;;;5036687;28;20409;-83
2023/10/06 00:58:53;;;;;;;9.83;7.27;;;;;;;;;;5036610;28;20431;-84
2023/10/06 01:01:19;;;;;;;9.80;6.90;;;;;;;;;;5019338;28;20411;-91
2023/10/06 01:03:48;;;;;;;10.80;7.90;;;;;;;;;;5036294;28;20417;-84
2023/10/06 01:06:17;;;;;;;10.20;7.90;;;;;;;;;;5019048;28;20509;-90
2023/10/06 01:08:45;;;;;;;15.23;9.00;;;;;;;;;;5018587;28;20990;-84
2023/10/06 01:11:12;;;;;;;11.00;8.03;;;;;;;;;;5036048;28;20413;-83
2023/10/06 01:13:52;;;;;;;11.83;7.50;;;;;;;;;;5018487;28;20443;-89
2023/10/06 01:16:17;;;;;;;11.13;7.83;;;;;;;;;;5035968;28;20449;-88
2023/10/06 01:18:43;;;;;;;12.20;7.23;;;;;;;;;;5035634;28;20445;-85
2023/10/06 01:21:27;;;;;;;14.80;8.20;;;;;;;;;;5017727;28;20417;-84
2023/10/06 01:23:53;;;;;;;11.90;9.07;;;;;;;;;;5017608;28;20487;-85
2023/10/06 01:26:24;;;;;;;13.73;9.03;;;;;;;;;;5017610;28;20904;-83
2023/10/06 01:28:53;;;;;;;15.63;10.00;;;;;;;;;;5017739;28;20467;-85
2023/10/06 01:31:20;;;;;;;12.50;10.20;;;;;;;;;;5017698;28;20479;-88
2023/10/06 01:33:46;;;;;;;13.87;9.60;;;;;;;;;;5035675;28;20468;-87
2023/10/06 01:36:22;;;;;;;13.03;10.20;;;;;;;;;;5035361;28;20446;-88
2023/10/06 01:38:48;;;;;;;14.83;8.80;;;;;;;;;;5035152;28;20452;-84
2023/10/06 01:41:14;;;;;;;16.93;11.20;;;;;;;;;;5035268;28;20418;-83
2023/10/06 01:43:40;;;;;;;15.67;10.33;;;;;;;;;;5035334;28;20424;-88
2023/10/06 01:46:12;;;;;;;15.20;10.50;;;;;;;;;;5035357;28;20468;-89
2023/10/06 01:48:38;;;;;;;13.33;10.80;;;;;;;;;;5035212;28;20456;-89
2023/10/06 01:51:09;;;;;;;14.57;10.87;;;;;;;;;;5035050;28;20422;-88
2023/10/06 01:53:39;;;;;;;16.67;10.67;;;;;;;;;;5034968;28;20170;-89
2023/10/06 01:56:08;;;;;;;13.83;11.63;;;;;;;;;;5035395;28;20413;-82
2023/10/06 01:58:35;;;;;;;15.63;12.30;;;;;;;;;;5035098;28;20416;-81
2023/10/06 02:01:01;;;;;;;18.37;11.70;;;;;;;;;;5034839;28;20424;-84
2023/10/06 02:03:27;;;;;;;16.60;12.80;;;;;;;;;;5034855;28;20409;-88
2023/10/06 02:05:59;;;;;;;17.17;10.50;;;;;;;;;;5034696;28;20466;-88
2023/10/06 02:08:26;;;;;;;17.30;12.10;;;;;;;;;;5034615;28;20417;-84
2023/10/06 02:10:54;;;;;;;17.83;10.77;;;;;;;;;;5037418;28;20437;-89
2023/10/06 02:13:21;;;;;;;17.17;9.77;;;;;;;;;;5042557;28;21024;-87
2023/10/06 02:15:56;;;;;;;12.90;9.73;;;;;;;;;;5034682;28;20412;-87
2023/10/06 02:18:22;;;;;;;11.20;9.63;;;;;;;;;;5034584;28;20413;-82
2023/10/06 02:20:49;;;;;;;17.50;10.40;;;;;;;;;;5037111;28;20527;-84
2023/10/06 02:23:15;;;;;;;18.70;11.17;;;;;;;;;;5052940;28;20423;-88
2023/10/06 02:25:42;;;;;;;16.57;10.47;;;;;;;;;;5048981;28;20482;-82
2023/10/06 02:28:14;;;;;;;14.10;9.60;;;;;;;;;;5034463;28;20411;-84
2023/10/06 02:30:44;;;;;;;15.83;9.20;;;;;;;;;;5038936;28;20419;-83
2023/10/06 02:33:11;;;;;;;13.93;9.40;;;;;;;;;;5036526;28;21016;-84
2023/10/06 02:35:45;;;;;;;15.17;8.90;;;;;;;;;;5040913;28;20429;-84
2023/10/06 02:38:11;;;;;;;18.10;9.03;;;;;;;;;;5063348;28;20469;-83
2023/10/06 02:40:44;;;;;;;16.30;10.07;;;;;;;;;;5057137;28;20511;-84
2023/10/06 02:43:10;;;;;;;12.60;8.30;;;;;;;;;;5034885;28;20469;-87
2023/10/06 02:45:40;;;;;;;18.83;9.33;;;;;;;;;;5053926;28;20507;-84
2023/10/06 02:48:14;;;;;;;13.30;9.30;;;;;;;;;;5053882;28;20507;-86
2023/10/06 02:50:44;;;;;;;14.07;7.67;;;;;;;;;;5053910;28;20447;-85
2023/10/06 02:53:14;;;;;;;15.03;8.80;;;;;;;;;;5035579;28;20912;-87
2023/10/06 02:55:43;;;;;;;16.27;10.00;;;;;;;;;;5053868;28;20417;-83
2023/10/06 02:58:10;;;;;;;13.43;9.67;;;;;;;;;;5053744;28;20964;-84
2023/10/06 03:00:36;;;;;;;16.80;9.10;;;;;;;;;;5053506;28;20408;-83
2023/10/06 03:03:03;;;;;;;13.90;9.80;;;;;;;;;;5035834;28;20426;-85
2023/10/06 03:05:32;;;;;;;14.00;10.40;;;;;;;;;;5053754;28;20414;-89
2023/10/06 03:08:01;;;;;;;12.20;8.40;;;;;;;;;;5053576;28;20423;-83
2023/10/06 03:10:30;;;;;;;18.23;10.17;;;;;;;;;;5035632;28;20438;-84
2023/10/06 03:12:57;;;;;;;11.97;9.17;;;;;;;;;;5035605;28;20454;-88
2023/10/06 03:15:35;;;;;;;12.50;9.67;;;;;;;;;;5035833;28;20421;-88
2023/10/06 03:18:02;;;;;;;16.30;10.03;;;;;;;;;;5054233;28;20401;-84
2023/10/06 03:20:40;;;;;;;14.80;9.37;;;;;;;;;;5053567;28;20430;-85
2023/10/06 03:23:13;;;;;;;13.83;9.93;;;;;;;;;;5053624;28;20400;-81
2023/10/06 03:25:39;;;;;;;17.70;10.70;;;;;;;;;;5054010;28;20883;-93
2023/10/06 03:28:05;;;;;;;13.77;9.77;;;;;;;;;;5054021;28;20815;-82
2023/10/06 03:30:34;;;;;;;15.43;10.83;;;;;;;;;;5053437;28;20396;-85
2023/10/06 03:33:03;;;;;;;22.53;11.00;;;;;;;;;;5053441;28;20458;-84
2023/10/06 03:35:36;;;;;;;18.30;12.43;;;;;;;;;;5053423;28;20411;-83
2023/10/06 03:38:27;;;;;;;17.20;11.60;;;;;;;;;;5053105;28;20415;-86
2023/10/06 03:43:36;;;;;;;16.00;10.60;;;;;;;;;;5053205;28;20485;-89
2023/10/06 03:46:02;;;;;;;16.30;11.00;;;;;;;;;;5053762;28;20681;-83
2023/10/06 03:48:31;;;;;;;17.47;11.93;;;;;;;;;;5035615;28;20429;-82
2023/10/06 03:50:57;;;;;;;19.43;12.50;;;;;;;;;;5053176;28;20821;-81
2023/10/06 03:53:29;;;;;;;20.80;13.00;;;;;;;;;;5052347;28;20461;-75
2023/10/06 03:55:57;;;;;;;15.23;10.90;;;;;;;;;;5052813;28;20417;-76
2023/10/06 03:58:29;;;;;;;18.30;12.40;;;;;;;;;;5052858;28;20885;-75
2023/10/06 04:00:55;;;;;;;13.87;11.63;;;;;;;;;;5052731;28;20499;-76
2023/10/06 04:03:21;;;;;;;19.63;12.57;;;;;;;;;;5052681;28;20929;-76
2023/10/06 04:05:48;;;;;;;16.57;11.83;;;;;;;;;;5052176;28;20467;-77
2023/10/06 04:08:21;;;;;;;17.53;12.60;;;;;;;;;;5052431;28;20419;-76
2023/10/06 04:10:51;;;;;;;20.30;11.80;;;;;;;;;;5052604;28;20739;-76
2023/10/06 04:13:18;;;;;;;19.57;12.30;;;;;;;;;;5052808;28;20422;-76
2023/10/06 04:15:48;;;;;;;14.60;12.20;;;;;;;;;;5052762;28;20450;-77
2023/10/06 04:18:16;;;;;;;16.53;12.50;;;;;;;;;;5052683;28;20393;-77
2023/10/06 04:20:43;;;;;;;15.40;13.07;;;;;;;;;;5052649;28;20400;-75
2023/10/06 04:23:12;;;;;;;19.37;12.50;;;;;;;;;;5053009;28;20400;-79
2023/10/06 04:25:38;;;;;;;14.50;11.90;;;;;;;;;;5056575;28;20491;-76
2023/10/06 04:28:13;;;;;;;14.13;10.57;;;;;;;;;;5056359;28;20503;-76
2023/10/06 04:30:42;;;;;;;16.03;11.33;;;;;;;;;;5056598;28;20832;-76
2023/10/06 04:33:10;;;;;;;16.23;12.20;;;;;;;;;;5056516;28;20474;-80
2023/10/06 04:35:39;;;;;;;14.90;10.63;;;;;;;;;;5056507;28;20396;-76
2023/10/06 04:38:12;;;;;;;15.13;11.63;;;;;;;;;;5056164;28;20415;-76
2023/10/06 04:40:38;;;;;;;17.23;10.50;;;;;;;;;;5038552;28;20412;-80
2023/10/06 04:43:04;;;;;;;19.57;10.10;;;;;;;;;;5038377;28;20416;-79
2023/10/06 04:45:33;;;;;;;11.60;10.03;;;;;;;;;;5056175;28;20408;-76
2023/10/06 04:48:03;;;;;;;13.77;9.40;;;;;;;;;;5056223;28;20419;-80
2023/10/06 04:50:30;;;;;;;12.67;9.80;;;;;;;;;;5056132;28;20767;-78
2023/10/06 04:52:56;;;;;;;19.77;9.80;;;;;;;;;;5055646;28;20514;-76
2023/10/06 04:55:22;;;;;;;13.10;9.60;;;;;;;;;;5056184;28;20404;-77
2023/10/06 04:57:48;;;;;;;11.87;8.70;;;;;;;;;;5055910;28;20408;-79
2023/10/06 05:00:27;;;;;;;12.80;8.50;;;;;;;;;;5037944;28;20749;-75
2023/10/06 05:02:53;;;;;;;11.53;8.40;;;;;;;;;;5055894;28;20173;-75
2023/10/06 05:05:20;;;;;;;9.80;8.80;;;;;;;;;;5055816;28;20457;-77
2023/10/06 05:07:50;;;;;;;15.27;9.00;;;;;;;;;;5055453;28;20447;-75
2023/10/06 05:10:21;;;;;;;12.73;7.47;;;;;;;;;;5055745;28;20465;-75
2023/10/06 05:12:50;;;;;;;11.53;8.03;;;;;;;;;;5037413;28;20427;-75
2023/10/06 05:15:30;;;;;;;11.40;9.17;;;;;;;;;;5055706;28;20420;-78
2023/10/06 05:18:15;;;;;;;11.60;6.60;;;;;;;;;;5055626;28;20983;-76
2023/10/06 05:20:42;;;;;;;11.67;6.50;;;;;;;;;;5055624;28;20886;-78
2023/10/06 05:23:14;;;;;;;13.87;7.10;;;;;;;;;;5055241;28;20462;-79
2023/10/06 05:25:40;;;;;;;8.93;6.03;;;;;;;;;;5055468;28;20451;-76
2023/10/06 05:28:10;;;;;;;13.27;6.80;;;;;;;;;;5055384;28;20431;-75
2023/10/06 05:30:42;;;;;;;9.10;6.50;;;;;;;;;;5055340;28;20436;-76
2023/10/06 05:33:07;;;;;;;10.70;6.17;;;;;;;;;;5055447;28;20477;-78
2023/10/06 05:35:40;;;;;;;11.33;5.43;;;;;;;;;;5054866;28;20404;-77
2023/10/06 05:38:13;;;;;;;14.97;5.73;;;;;;;;;;5054919;28;20646;-75
2023/10/06 05:40:46;;;;;;;9.87;4.40;;;;;;;;;;5055292;28;20405;-78
2023/10/06 05:43:18;;;;;;;10.40;5.63;;;;;;;;;;5055280;28;20396;-76
2023/10/06 05:45:51;;;;;;;8.37;4.67;;;;;;;;;;5054934;28;20455;-76
2023/10/06 05:48:20;;;;;;;13.90;4.77;;;;;;;;;;5055174;28;20412;-76
2023/10/06 05:50:48;;;;;;;7.47;4.60;;;;;;;;;;5055009;28;20413;-79
2023/10/06 05:53:19;;;;;;;9.90;4.60;;;;;;;;;;5054577;28;20464;-77
2023/10/06 05:55:49;;;;;;;10.23;5.30;;;;;;;;;;5037085;28;20424;-76
2023/10/06 05:58:16;;;;;;;9.30;5.43;;;;;;;;;;5054939;28;20404;-79
2023/10/06 06:01:05;;;;;;;7.67;4.73;;;;;;;;;;5054915;28;20455;-77
2023/10/06 06:03:31;;;;;;;8.63;4.53;;;;;;;;;;5036913;28;20462;-75
2023/10/06 06:06:02;;;;;;;11.03;4.37;;;;;;;;;;5054658;28;20468;-78
2023/10/06 06:08:30;;;;;;;11.97;4.50;;;;;;;;;;5054385;28;20416;-76
2023/10/06 06:10:56;;;;;;;11.13;5.45;;;;;;;;;;5053921;28;20484;-75
2023/10/06 06:13:22;;;;;;;10.33;5.30;;;;;;;;;;5054569;28;20174;-76
2023/10/06 06:15:50;;;;;;;9.97;5.07;;;;;;;;;;5054464;28;20495;-78
2023/10/06 06:18:16;;;;;;;6.90;3.70;;;;;;;;;;5051279;28;20924;-77
2023/10/06 06:20:42;;;;;;;10.83;4.23;;;;;;;;;;5054533;28;20445;-76
2023/10/06 06:23:09;;;;;;;10.17;3.67;;;;;;;;;;5053960;28;20409;-77
2023/10/06 06:25:39;;;;;;;8.43;3.97;;;;;;;;;;5054258;28;20424;-76
2023/10/06 06:28:05;;;;;;;10.50;4.47;;;;;;;;;;5054363;28;20428;-76
2023/10/06 06:30:33;;;;;;;9.77;4.50;;;;;;;;;;5036351;28;20448;-76
2023/10/06 06:33:01;;;;;;;7.63;3.73;;;;;;;;;;5054212;28;20802;-76
2023/10/06 06:35:29;;;;;;;7.53;3.63;;;;;;;;;;5054025;28;20922;-77
2023/10/06 06:38:01;;;;;;;7.83;3.83;;;;;;;;;;5053840;28;20770;-77
2023/10/06 06:40:28;;;;;;;10.13;3.93;;;;;;;;;;5054044;28;20404;-76
2023/10/06 06:42:55;;;;;;;9.40;3.53;;;;;;;;;;5053888;28;20499;-76
2023/10/06 06:45:24;;;;;;;8.03;2.80;;;;;;;;;;5053647;28;20413;-75
2023/10/06 06:47:50;;;;;;;9.10;3.90;;;;;;;;;;5053558;28;20421;-75
2023/10/06 06:50:17;;;;;;;9.97;4.23;;;;;;;;;;5053902;28;20503;-77
2023/10/06 06:52:43;;;;;;;8.53;4.20;;;;;;;;;;5053182;28;20468;-76
2023/10/06 06:55:12;;;;;;;6.73;4.00;;;;;;;;;;5053662;28;20440;-75
2023/10/06 06:57:41;;;;;;;7.17;3.07;;;;;;;;;;5053595;28;20437;-75
2023/10/06 07:00:15;;;;;;;7.73;4.23;;;;;;;;;;5053637;28;20493;-75
2023/10/06 07:02:41;;;;;;;7.87;4.10;;;;;;;;;;5053687;28;20495;-75
2023/10/06 07:05:07;;;;;;;10.13;4.30;;;;;;;;;;5053648;28;20460;-75
2023/10/06 07:07:33;;;;;;;7.87;3.90;;;;;;;;;;5053125;28;20214;-75
2023/10/06 07:09:59;;;;;;;12.07;5.57;;;;;;;;;;5053503;28;20954;-75
2023/10/06 07:12:25;;;;;;;10.97;4.30;;;;;;;;;;5053467;28;20208;-75
2023/10/06 07:14:51;;;;;;;6.53;3.47;;;;;;;;;;5053392;28;20940;-77
2023/10/06 07:17:17;;;;;;;10.87;4.50;;;;;;;;;;5053453;28;20424;-77
2023/10/06 07:19:42;;;;;;;8.93;3.50;;;;;;;;;;5053388;28;20178;-76
2023/10/06 07:22:10;;;;;;;7.17;4.10;;;;;;;;;;5052959;28;20788;-75
2023/10/06 07:24:36;;;;;;;11.03;4.43;;;;;;;;;;5053241;28;20694;-76
2023/10/06 07:27:02;;;;;;;8.00;4.23;;;;;;;;;;5053139;28;20567;-75
2023/10/06 07:29:28;;;;;;;10.27;3.80;;;;;;;;;;5053119;28;20402;-75
2023/10/06 07:31:54;;;;;;;8.50;4.60;;;;;;;;;;5053196;28;20175;-76
2023/10/06 07:34:20;;;;;;;11.83;6.30;;;;;;;;;;5053141;28;20974;-75
2023/10/06 07:36:46;;;;;;;9.60;4.40;;;;;;;;;;5052737;28;20194;-77
2023/10/06 07:39:20;;;;;;;9.17;4.63;;;;;;;;;;5053141;28;20416;-76
2023/10/06 07:41:46;;;;;;;12.37;5.37;;;;;;;;;;5053012;28;20418;-76
2023/10/06 07:44:14;;;;;;;8.47;4.07;;;;;;;;;;5052926;28;20488;-77
2023/10/06 07:46:40;;;;;;;10.73;4.23;;;;;;;;;;5052831;28;20514;-76
2023/10/06 07:49:06;;;;;;;8.30;4.40;;;;;;;;;;5035046;28;20436;-75
2023/10/06 07:51:33;;;;;;;6.13;3.50;;;;;;;;;;5034615;28;20469;-74
2023/10/06 07:54:00;;;;;;;14.30;4.47;;;;;;;;;;5035029;28;20417;-75
2023/10/06 07:56:28;;;;;;;12.57;3.67;;;;;;;;;;5034946;28;20829;-75
2023/10/06 07:58:54;;;;;;;6.37;3.97;;;;;;;;;;5052631;28;20402;-74
2023/10/06 08:01:23;;;;;;;9.70;3.83;;;;;;;;;;5034828;28;20443;-75
2023/10/06 08:03:49;;;;;;;9.77;4.80;;;;;;;;;;5052810;28;20198;-77
2023/10/06 08:06:15;;;;;;;6.80;3.53;;;;;;;;;;5052387;28;20462;-75
2023/10/06 08:08:41;;;;;;;8.30;3.40;;;;;;;;;;5052793;28;20412;-75
2023/10/06 08:11:07;;;;;;;10.70;3.80;;;;;;;;;;5052688;28;20460;-75
2023/10/06 08:13:33;;;;;;;6.63;3.37;;;;;;;;;;5052706;28;20466;-75
2023/10/06 08:16:00;;;;;;;8.63;3.50;;;;;;;;;;5052699;28;20417;-75
2023/10/06 08:18:29;;;;;;;13.80;4.30;;;;;;;;;;5052662;28;20474;-74
2023/10/06 08:20:56;;;;;;;10.70;3.87;;;;;;;;;;5052372;28;20895;-75
2023/10/06 08:23:22;;;;;;;11.90;4.60;;;;;;;;;;5034653;28;20890;-75
2023/10/06 08:25:49;;;;;;;9.73;3.97;;;;;;;;;;5052485;28;20516;-75
2023/10/06 08:28:15;;;;;;;8.20;3.63;;;;;;;;;;5034743;28;20421;-74
2023/10/06 08:30:41;;;;;;;6.97;3.30;;;;;;;;;;5052534;28;20805;-75
2023/10/06 08:33:13;;;;;;;6.77;3.60;;;;;;;;;;5034583;28;20438;-75
2023/10/06 08:35:40;;;;;;;8.27;3.10;;;;;;;;;;5052520;28;20409;-75
2023/10/06 08:38:07;;;;;;;4.47;3.37;;;;;;;;;;5052523;28;20409;-76
2023/10/06 08:40:36;;;;;;;8.97;3.43;;;;;;;;;;5034689;28;20504;-74
2023/10/06 08:43:02;;;;;;;6.97;3.40;;;;;;;;;;5052448;28;20421;-75
2023/10/06 08:45:30;;;;;;;9.47;4.17;;;;;;;;;;5050572;28;20451;-85
2023/10/06 08:47:58;;;;;;;7.33;4.07;;;;;;;;;;5032452;28;20415;-75
2023/10/06 08:50:25;;;;;;;12.57;4.27;;;;;;;;;;5032510;28;20487;-76
2023/10/06 08:52:52;;;;;;;7.57;3.70;;;;;;;;;;5031976;28;20980;-75
2023/10/06 08:55:21;;;;;;;7.47;3.63;;;;;;;;;;5032476;28;20418;-76
2023/10/06 08:57:49;;;;;;;7.40;3.50;;;;;;;;;;5032511;28;20408;-76
2023/10/06 09:00:18;;;;;;;7.77;4.73;;;;;;;;;;5014907;28;20782;-75
2023/10/06 09:02:48;;;;;;;6.20;3.20;;;;;;;;;;5014623;28;20933;-77
2023/10/06 09:05:14;;;;;;;6.80;3.83;;;;;;;;;;5032428;28;20414;-76
2023/10/06 09:07:56;;;;;;;9.23;3.13;;;;;;;;;;5032034;28;20477;-75
2023/10/06 09:10:22;;;;;;;7.07;2.80;;;;;;;;;;5034773;28;20606;-76
2023/10/06 09:12:59;;;;;;;9.80;3.67;;;;;;;;;;5035879;28;20464;-76
2023/10/06 09:15:32;;;;;;;5.87;3.27;;;;;;;;;;5018017;28;20439;-75
2023/10/06 09:17:58;;;;;;;9.43;5.53;;;;;;;;;;5035708;28;20410;-76
2023/10/06 09:20:37;;;;;;;4.33;2.67;;;;;;;;;;5035678;28;20413;-76
2023/10/06 09:23:03;;;;;;;5.17;2.97;;;;;;;;;;5035614;28;20482;-75
2023/10/06 09:25:50;;;;;;;6.07;2.17;;;;;;;;;;5035518;28;20407;-74
2023/10/06 09:28:17;;;;;;;7.47;3.50;;;;;;;;;;5035674;28;20442;-75
2023/10/06 09:30:56;;;;;;;7.07;2.70;;;;;;;;;;5035524;28;20505;-75
2023/10/06 09:33:24;;;;;;;8.33;3.47;;;;;;;;;;5035557;28;20419;-75
2023/10/06 09:36:06;;;;;;;9.30;3.07;;;;;;;;;;5035058;28;20483;-75
2023/10/06 09:38:32;;;;;;;6.63;2.70;;;;;;;;;;5035395;28;20415;-75
2023/10/06 09:40:58;;;;;;;6.97;2.13;;;;;;;;;;5035412;28;20794;-76
2023/10/06 09:43:25;;;;;;;8.97;2.83;;;;;;;;;;5035246;28;20423;-75
2023/10/06 09:45:55;;;;;;;8.47;2.23;;;;;;;;;;5035246;28;20778;-76
2023/10/06 09:48:25;;;;;;;6.60;2.27;;;;;;;;;;5035212;28;20422;-77
2023/10/06 09:50:54;;;;;;;5.50;2.97;;;;;;;;;;5034809;28;20554;-75
2023/10/06 09:53:21;;;;;;;6.00;2.37;;;;;;;;;;5034935;28;20516;-75
2023/10/06 09:55:50;;;;;;;7.00;3.47;;;;;;;;;;5034966;28;20458;-75
2023/10/06 09:58:19;;;;;;;5.83;2.27;;;;;;;;;;5017099;28;20424;-76
2023/10/06 10:00:49;;;;;;;8.50;2.80;;;;;;;;;;5034911;28;20407;-79
2023/10/06 10:03:16;;;;;;;8.77;3.17;;;;;;;;;;5034930;28;20822;-79
2023/10/06 10:05:43;;;;;;;6.10;2.40;;;;;;;;;;5034329;28;20914;-75
2023/10/06 10:08:10;;;;;;;8.83;3.50;;;;;;;;;;5034881;28;20419;-77
2023/10/06 10:10:38;;;;;;;5.40;2.57;;;;;;;;;;5034692;28;20411;-75
2023/10/06 10:13:08;;;;;;;8.10;3.30;;;;;;;;;;5034625;28;20835;-75
2023/10/06 10:15:57;;;;;;;8.33;3.00;;;;;;;;;;5034649;28;20404;-75
2023/10/06 10:18:26;;;;;;;6.40;3.03;;;;;;;;;;5016779;28;20446;-75
2023/10/06 10:20:52;;;;;;;7.03;2.50;;;;;;;;;;5033003;28;20441;-75
2023/10/06 10:23:21;;;;;;;8.07;3.43;;;;;;;;;;5016697;28;20469;-75
2023/10/06 10:25:47;;;;;;;6.47;3.73;;;;;;;;;;5034440;28;20406;-75
2023/10/06 10:28:14;;;;;;;9.33;4.50;;;;;;;;;;5034410;28;21058;-75
2023/10/06 10:30:49;;;;;;;8.67;4.70;;;;;;;;;;5016785;28;20463;-76
2023/10/06 10:33:21;;;;;;;9.10;5.30;;;;;;;;;;5034376;28;20410;-75
2023/10/06 10:36:05;;;;;;;10.73;3.97;;;;;;;;;;5033985;28;20412;-74
2023/10/06 10:38:33;;;;;;;9.17;4.83;;;;;;;;;;5034308;28;20491;-75
2023/10/06 10:40:58;;;;;;;10.33;4.43;;;;;;;;;;5034201;28;20452;-75
2023/10/06 10:43:24;;;;;;;6.27;3.27;;;;;;;;;;5034223;28;20804;-75
2023/10/06 10:45:53;;;;;;;9.33;3.20;;;;;;;;;;5034013;28;20208;-76
2023/10/06 10:48:19;;;;;;;6.33;3.93;;;;;;;;;;5034143;28;20257;-74
2023/10/06 10:51:06;;;;;;;9.17;3.73;;;;;;;;;;5015877;28;20775;-74
2023/10/06 10:53:33;;;;;;;10.60;4.63;;;;;;;;;;5034038;28;20886;-75
2023/10/06 10:56:01;;;;;;;7.57;4.20;;;;;;;;;;5033798;28;20458;-75
2023/10/06 10:58:42;;;;;;;6.30;3.83;;;;;;;;;;5033860;28;20411;-75
2023/10/06 11:01:22;;;;;;;5.40;4.00;;;;;;;;;;5032546;28;20906;-79
2023/10/06 11:04:09;;;;;;;9.50;4.03;;;;;;;;;;5033778;28;20413;-75
2023/10/06 11:06:35;;;;;;;12.17;5.03;;;;;;;;;;5033020;28;21107;-74
2023/10/06 11:11:46;;;;;;;7.30;4.07;;;;;;;;;;5033861;28;21041;-75
2023/10/06 11:14:12;;;;;;;9.10;3.83;;;;;;;;;;5033514;28;20451;-75
2023/10/06 11:16:44;;;;;;;8.07;3.40;;;;;;;;;;5033454;28;20262;-75
2023/10/06 11:19:15;;;;;;;11.23;4.10;;;;;;;;;;5033485;28;20418;-75
2023/10/06 11:21:41;;;;;;;6.63;3.97;;;;;;;;;;5033077;28;20570;-75
2023/10/06 11:24:07;;;;;;;10.70;3.80;;;;;;;;;;5033472;28;20495;-75
2023/10/06 11:26:33;;;;;;;6.73;4.70;;;;;;;;;;5031968;28;20485;-75
2023/10/06 11:29:00;;;;;;;7.00;2.97;;;;;;;;;;5033358;28;20774;-75
2023/10/06 11:31:26;;;;;;;6.47;3.90;;;;;;;;;;5033250;28;20266;-75
2023/10/06 11:33:54;;;;;;;6.43;3.97;;;;;;;;;;5032847;28;20475;-75
2023/10/06 11:36:20;;;;;;;6.30;3.70;;;;;;;;;;5032879;28;20779;-75
2023/10/06 11:38:46;;;;;;;10.63;4.80;;;;;;;;;;5033227;28;20743;-76
2023/10/06 11:41:21;;;;;;;9.87;4.33;;;;;;;;;;5033044;28;20514;-77
2023/10/06 11:43:58;;;;;;;8.33;3.40;;;;;;;;;;5033033;28;20413;-76
2023/10/06 11:46:24;;;;;;;7.27;3.00;;;;;;;;;;5032997;28;20474;-75
2023/10/06 11:48:52;;;;;;;9.37;3.40;;;;;;;;;;5033002;28;20852;-77
2023/10/06 11:51:18;;;;;;;7.03;3.80;;;;;;;;;;5032432;28;20458;-75
2023/10/06 11:53:44;;;;;;;12.30;3.37;;;;;;;;;;5033002;28;20399;-75
2023/10/06 11:56:13;;;;;;;9.53;3.40;;;;;;;;;;5032879;28;20443;-75
2023/10/06 11:58:40;;;;;;;6.90;3.33;;;;;;;;;;5015197;28;20427;-75
2023/10/06 12:01:06;;;;;;;5.83;2.90;;;;;;;;;;5032877;28;20853;-74
2023/10/06 12:03:39;;;;;;;10.40;3.63;;;;;;;;;;5032965;28;20425;-74
2023/10/06 12:06:07;;;;;;;12.03;4.90;;;;;;;;;;5032395;28;20568;-75
2023/10/06 12:08:41;;;;;;;7.20;4.17;;;;;;;;;;5032660;28;20438;-75
2023/10/06 12:11:07;;;;;;;8.07;3.83;;;;;;;;;;5032837;28;20460;-74
2023/10/06 12:13:33;;;;;;;8.30;3.57;;;;;;;;;;5015158;28;20501;-76
2023/10/06 12:15:59;;;;;;;7.30;3.83;;;;;;;;;;5032682;28;20252;-75
2023/10/06 12:18:29;;;;;;;9.83;3.57;;;;;;;;;;5032610;28;20419;-75
2023/10/06 12:20:55;;;;;;;5.30;3.30;;;;;;;;;;5014665;28;20426;-75
2023/10/06 12:23:21;;;;;;;4.83;3.43;;;;;;;;;;5032801;28;20851;-75
2023/10/06 12:25:47;;;;;;;8.27;3.33;;;;;;;;;;5032602;28;20512;-75
2023/10/06 12:28:16;;;;;;;4.90;3.47;;;;;;;;;;5032642;28;20431;-75
2023/10/06 12:30:42;;;;;;;6.40;3.43;;;;;;;;;;5032761;28;20182;-74
2023/10/06 12:33:10;;;;;;;5.93;3.60;;;;;;;;;;5032591;28;20466;-76
2023/10/06 12:35:36;;;;;;;6.87;4.10;;;;;;;;;;5039914;28;20424;-78
2023/10/06 12:38:02;;;;;;;6.47;3.13;;;;;;;;;;5037877;28;20507;-76
2023/10/06 12:40:29;;;;;;;12.00;4.07;;;;;;;;;;5032549;28;20441;-76
2023/10/06 12:42:55;;;;;;;8.80;3.67;;;;;;;;;;5032639;28;20468;-76
2023/10/06 12:45:22;;;;;;;8.00;3.53;;;;;;;;;;5035059;28;20405;-75
2023/10/06 12:47:49;;;;;;;7.33;3.80;;;;;;;;;;5036228;28;20870;-76
2023/10/06 12:50:19;;;;;;;7.03;3.37;;;;;;;;;;5036019;28;20451;-75
2023/10/06 12:52:49;;;;;;;5.83;3.27;;;;;;;;;;5035943;28;20459;-75
2023/10/06 12:55:15;;;;;;;7.53;3.30;;;;;;;;;;5036251;28;20409;-76
2023/10/06 12:57:41;;;;;;;8.10;3.40;;;;;;;;;;5018282;28;20421;-75
2023/10/06 13:00:09;;;;;;;8.60;4.10;;;;;;;;;;5036183;28;20506;-78
2023/10/06 13:02:35;;;;;;;6.90;3.77;;;;;;;;;;5036177;28;20553;-76
2023/10/06 13:05:08;;;;;;;6.17;3.20;;;;;;;;;;5035702;28;20410;-76
2023/10/06 13:07:34;;;;;;;5.50;3.37;;;;;;;;;;5036125;28;20480;-76
2023/10/06 13:10:05;;;;;;;8.07;2.93;;;;;;;;;;5035943;28;20408;-79
2023/10/06 13:12:32;;;;;;;10.80;2.87;;;;;;;;;;5035875;28;20177;-75
2023/10/06 13:15:00;;;;;;;7.10;2.83;;;;;;;;;;5035784;28;20414;-80
2023/10/06 13:17:28;;;;;;;5.40;2.73;;;;;;;;;;5035799;28;20417;-78
2023/10/06 13:19:54;;;;;;;4.73;1.90;;;;;;;;;;5035427;28;20493;-76
2023/10/06 13:22:19;;;;;;;7.80;2.90;;;;;;;;;;5017956;28;20838;-79
2023/10/06 13:24:46;;;;;;;6.27;2.57;;;;;;;;;;5017908;28;20187;-76
2023/10/06 13:27:11;;;;;;;5.40;2.17;;;;;;;;;;5035429;28;20222;-77
2023/10/06 13:29:37;;;;;;;9.60;3.00;;;;;;;;;;5017816;28;20416;-79
2023/10/06 13:32:07;;;;;;;6.60;2.90;;;;;;;;;;5035487;28;20463;-80
2023/10/06 13:34:33;;;;;;;8.57;3.50;;;;;;;;;;5035361;28;20408;-77
2023/10/06 13:36:58;;;;;;;6.83;2.60;;;;;;;;;;5017252;28;20430;-75
2023/10/06 13:39:25;;;;;;;7.23;2.70;;;;;;;;;;5017722;28;20421;-76
2023/10/06 13:41:51;;;;;;;7.30;4.00;;;;;;;;;;5035509;28;20560;-78
2023/10/06 13:44:18;;;;;;;5.80;2.10;;;;;;;;;;5020058;28;20416;-77
2023/10/06 13:46:44;;;;;;;4.87;2.60;;;;;;;;;;5051305;28;20556;-82
2023/10/06 13:49:11;;;;;;;6.83;2.50;;;;;;;;;;5054304;28;20462;-77
2023/10/06 13:51:47;;;;;;;6.20;3.20;;;;;;;;;;5032236;28;20982;-76
2023/10/06 13:54:13;;;;;;;7.30;3.40;;;;;;;;;;5028537;28;20504;-76
2023/10/06 13:56:39;;;;;;;8.03;2.70;;;;;;;;;;5036690;28;20516;-77
2023/10/06 13:59:05;;;;;;;9.37;3.00;;;;;;;;;;5051035;28;20436;-79
2023/10/06 14:01:35;;;;;;;6.03;1.93;;;;;;;;;;5050644;28;20423;-81
2023/10/06 14:04:03;;;;;;;7.73;2.70;;;;;;;;;;5048911;28;20502;-80
2023/10/06 14:06:29;;;;;;;7.93;3.10;;;;;;;;;;5047220;28;20461;-81
2023/10/06 14:08:55;;;;;;;5.27;2.10;;;;;;;;;;5044176;28;20825;-78
2023/10/06 14:11:21;;;;;;;5.33;2.13;;;;;;;;;;5027831;28;20429;-76
2023/10/06 14:13:50;;;;;;;10.47;1.93;;;;;;;;;;5052521;28;20423;-76
2023/10/06 14:16:22;;;;;;;6.70;2.23;;;;;;;;;;5045948;28;20430;-79
2023/10/06 14:18:53;;;;;;;8.23;2.23;;;;;;;;;;5049001;28;20450;-78
2023/10/06 14:21:22;;;;;;;5.43;2.30;;;;;;;;;;5025822;28;20422;-81
2023/10/06 14:23:49;;;;;;;6.70;1.80;;;;;;;;;;5042706;28;20445;-78
2023/10/06 14:26:17;;;;;;;5.93;2.30;;;;;;;;;;5043991;28;20467;-81
2023/10/06 14:28:44;;;;;;;7.20;2.57;;;;;;;;;;5044364;28;20404;-76
2023/10/06 14:31:19;;;;;;;3.83;1.83;;;;;;;;;;5042523;28;20410;-79
2023/10/06 14:33:47;;;;;;;5.47;2.23;;;;;;;;;;5044090;28;20517;-82
2023/10/06 14:46:33;;;;;;;5.53;2.20;;;;;;;;;;5053987;28;20480;-82
2023/10/06 14:49:03;;;;;;;5.07;2.47;;;;;;;;;;5053692;28;20541;-83
2023/10/06 14:51:29;;;;;;;6.10;2.23;;;;;;;;;;5035042;28;20473;-82
2023/10/06 14:53:59;;;;;;;4.13;1.83;;;;;;;;;;5053703;28;20409;-78
2023/10/06 14:56:26;;;;;;;5.40;2.20;;;;;;;;;;5035593;28;20418;-77
2023/10/06 14:58:54;;;;;;;6.30;2.40;;;;;;;;;;5053467;28;20452;-78
2023/10/06 15:01:20;;;;;;;5.27;1.67;;;;;;;;;;5035647;28;20456;-83